Time;durP1;ratioP1;P1;durP2;ratioP2;P2;SDS_P1;SDS_P2;PMS_P1;PMS_P2;Temp;Humidity;BMP_temperature;BMP_pressure;BME280_temperature;BME280_humidity;BME280_pressure;Samples;Min_cycle;Max_cycle;Signal;HPM_P1;HPM_P2
2023/11/18 00:01:43;;;;;;;1.55;1.38;;;;;;;4.79;76.08;99694.56;5052658;28;20045;-71
2023/11/18 00:04:15;;;;;;;;;;;;;;;4.82;76.38;99709.81;5053801;28;20048;-70
2023/11/18 00:06:45;;;;;;;0.50;0.50;;;;;;;4.83;76.26;99703.91;5053268;28;19920;-71
2023/11/18 00:09:14;;;;;;;0.50;0.50;;;;;;;4.87;76.29;99702.31;5053352;28;20051;-70
2023/11/18 00:11:43;;;;;;;;;;;;;;;4.84;75.93;99703.09;5052737;28;20045;-71
2023/11/18 00:14:13;;;;;;;0.63;0.63;;;;;;;4.84;76.17;99700.59;5053265;28;19921;-71
2023/11/18 00:16:42;;;;;;;0.40;0.40;;;;;;;4.71;76.12;99670.78;5053220;28;20049;-70
2023/11/18 00:19:11;;;;;;;1.23;1.13;;;;;;;4.88;75.69;99706.53;5053257;28;20037;-70
2023/11/18 00:21:40;;;;;;;0.40;0.40;;;;;;;4.86;75.89;99714.09;5053493;28;20037;-71
2023/11/18 00:24:09;;;;;;;0.35;0.35;;;;;;;4.79;76.14;99689.50;5053462;28;20041;-71
2023/11/18 00:26:38;;;;;;;0.93;0.88;;;;;;;4.94;75.88;99714.28;5053341;28;20045;-71
2023/11/18 00:29:07;;;;;;;;;;;;;;;4.96;75.36;99717.69;5054184;28;20041;-71
2023/11/18 00:31:38;;;;;;;0.35;0.35;;;;;;;4.91;75.55;99709.16;5052466;28;20274;-70
2023/11/18 00:34:07;;;;;;;1.42;1.33;;;;;;;4.91;75.49;99715.06;5052031;28;20076;-70
2023/11/18 00:36:37;;;;;;;0.75;0.75;;;;;;;4.90;75.40;99718.41;5053044;28;20045;-71
2023/11/18 00:39:06;;;;;;;0.50;0.50;;;;;;;4.90;75.06;99723.47;5051736;28;20051;-70
2023/11/18 00:41:35;;;;;;;0.80;0.80;;;;;;;4.90;75.14;99728.50;5052993;28;20048;-71
2023/11/18 00:44:03;;;;;;;0.30;0.30;;;;;;;4.91;75.00;99720.13;5052993;28;20052;-70
2023/11/18 00:46:36;;;;;;;0.33;0.33;;;;;;;4.91;75.01;99731.91;5051762;28;20037;-70
2023/11/18 00:49:06;;;;;;;0.47;0.47;;;;;;;4.76;75.28;99709.66;5053254;28;20627;-71
2023/11/18 00:51:36;;;;;;;0.40;0.40;;;;;;;4.91;74.93;99747.94;5051483;28;20099;-71
2023/11/18 00:54:06;;;;;;;0.30;0.30;;;;;;;4.90;75.00;99738.63;5053216;28;20056;-70
2023/11/18 00:56:35;;;;;;;0.68;0.68;;;;;;;4.94;74.88;99720.19;5052877;28;20045;-71
2023/11/18 00:59:06;;;;;;;0.28;0.28;;;;;;;4.96;75.00;99723.59;5051504;28;20048;-70
2023/11/18 01:01:35;;;;;;;0.77;0.77;;;;;;;5.00;74.94;99730.44;5051669;28;20052;-71
2023/11/18 01:04:07;;;;;;;1.25;1.15;;;;;;;5.06;75.05;99738.13;5052884;28;20453;-71
2023/11/18 01:06:38;;;;;;;0.60;0.60;;;;;;;5.11;75.21;99739.09;5051651;28;20128;-71
2023/11/18 01:09:09;;;;;;;2.83;1.43;;;;;;;5.14;75.41;99744.22;5051460;28;20037;-71
2023/11/18 01:11:38;;;;;;;0.30;0.30;;;;;;;5.20;75.07;99741.84;5051566;28;20336;-70
2023/11/18 01:14:27;;;;;;;1.67;1.58;;;;;;;5.26;75.04;99734.38;5056571;28;20464;-71
2023/11/18 01:16:56;;;;;;;0.38;0.38;;;;;;;5.28;74.85;99742.84;5055530;28;20026;-70
2023/11/18 01:19:27;;;;;;;0.40;0.40;;;;;;;5.32;74.75;99739.59;5056186;28;20049;-70
2023/11/18 01:21:56;;;;;;;0.65;0.60;;;;;;;5.26;75.24;99726.78;5056701;28;20037;-70
2023/11/18 01:24:25;;;;;;;0.47;0.47;;;;;;;5.37;75.12;99737.16;5055364;28;20036;-70
2023/11/18 01:26:54;;;;;;;0.98;0.55;;;;;;;5.40;74.65;99732.97;5056775;28;20044;-70
2023/11/18 01:29:23;;;;;;;1.53;1.23;;;;;;;5.43;74.90;99732.19;5055228;28;20120;-70
2023/11/18 01:31:55;;;;;;;0.50;0.50;;;;;;;5.45;74.93;99734.78;5055003;28;20357;-70
2023/11/18 01:34:26;;;;;;;0.63;0.63;;;;;;;5.42;74.71;99726.28;5056124;28;20048;-70
2023/11/18 01:36:56;;;;;;;0.30;0.30;;;;;;;5.47;74.47;99733.13;5054983;28;20518;-70
2023/11/18 01:39:26;;;;;;;0.40;0.40;;;;;;;5.42;74.63;99736.41;5056141;28;20045;-70
2023/11/18 01:41:59;;;;;;;0.32;0.32;;;;;;;5.39;75.14;99731.28;5055974;28;20037;-70
2023/11/18 01:44:33;;;;;;;0.32;0.32;;;;;;;5.37;75.10;99730.38;5054808;28;20144;-70
2023/11/18 01:47:06;;;;;;;0.30;0.30;;;;;;;5.40;74.94;99732.97;5055907;28;20102;-70
2023/11/18 01:49:39;;;;;;;0.73;0.73;;;;;;;5.41;74.99;99728.78;5054587;28;20120;-71
2023/11/18 01:52:11;;;;;;;0.30;0.30;;;;;;;5.35;75.65;99729.50;5054486;28;20145;-71
2023/11/18 01:54:44;;;;;;;0.95;0.70;;;;;;;5.33;75.40;99731.16;5055741;28;20106;-70
2023/11/18 01:57:14;;;;;;;2.47;0.98;;;;;;;5.32;75.37;99728.59;5055684;28;20059;-70
2023/11/18 01:59:43;;;;;;;0.73;0.73;;;;;;;5.23;75.18;99714.06;5054220;28;20490;-70
2023/11/18 02:02:13;;;;;;;0.50;0.50;;;;;;;5.26;75.64;99733.50;5054340;28;20518;-70
2023/11/18 02:04:44;;;;;;;0.73;0.73;;;;;;;5.26;75.23;99729.31;5054366;28;20049;-71
2023/11/18 02:07:15;;;;;;;0.30;0.30;;;;;;;5.22;75.60;99735.16;5055488;28;20053;-70
2023/11/18 02:09:45;;;;;;;0.60;0.60;;;;;;;5.21;75.54;99738.47;5054697;28;20040;-70
2023/11/18 02:12:24;;;;;;;0.30;0.30;;;;;;;5.14;75.81;99718.94;5054272;28;20045;-70
2023/11/18 02:14:56;;;;;;;0.85;0.85;;;;;;;5.19;75.60;99737.59;5055702;28;20124;-70
2023/11/18 02:17:28;;;;;;;0.60;0.60;;;;;;;5.21;75.59;99741.00;5054710;28;20051;-70
2023/11/18 02:20:06;;;;;;;0.98;0.40;;;;;;;5.19;75.54;99742.66;5055549;28;20049;-70
2023/11/18 02:22:35;;;;;;;0.75;0.75;;;;;;;5.16;75.48;99745.13;5055610;28;20048;-70
2023/11/18 02:25:09;;;;;;;2.05;1.63;;;;;;;5.16;75.54;99744.28;5053195;28;20126;-70
2023/11/18 02:27:40;;;;;;;0.50;0.50;;;;;;;5.17;75.40;99749.38;5055092;28;20052;-70
2023/11/18 02:30:12;;;;;;;0.40;0.40;;;;;;;5.16;75.41;99752.69;5037480;28;20041;-70
2023/11/18 02:32:48;;;;;;;1.50;1.40;;;;;;;5.14;75.52;99756.03;5055271;28;20048;-70
2023/11/18 02:35:25;;;;;;;0.30;0.30;;;;;;;5.15;75.71;99753.53;5055301;28;20060;-70
2023/11/18 02:37:56;;;;;;;1.10;1.00;;;;;;;5.15;75.65;99745.94;5054966;28;20514;-70
2023/11/18 02:40:35;;;;;;;0.50;0.50;;;;;;;5.05;75.69;99738.13;5054704;28;20128;-70
2023/11/18 02:43:07;;;;;;;0.40;0.40;;;;;;;5.13;75.76;99749.28;5053673;28;20099;-70
2023/11/18 02:45:38;;;;;;;0.73;0.73;;;;;;;5.13;75.46;99756.84;5055112;28;20080;-71
2023/11/18 02:48:07;;;;;;;0.30;0.30;;;;;;;5.08;75.65;99748.31;5054885;28;20041;-70
2023/11/18 02:50:36;;;;;;;1.73;1.35;;;;;;;4.89;75.61;99731.88;5054817;28;20048;-70
2023/11/18 02:53:06;;;;;;;0.57;0.57;;;;;;;4.98;76.05;99762.44;5054645;28;20443;-70
2023/11/18 02:55:35;;;;;;;0.40;0.40;;;;;;;5.01;75.84;99756.59;5053874;28;20389;-70
2023/11/18 02:58:05;;;;;;;0.40;0.40;;;;;;;5.03;76.01;99760.00;5054622;28;20041;-71
2023/11/18 03:00:35;;;;;;;0.60;0.60;;;;;;;5.07;76.29;99761.75;5054564;28;20101;-70
2023/11/18 03:03:04;;;;;;;0.50;0.50;;;;;;;5.14;76.40;99759.41;5054753;28;20166;-70
2023/11/18 03:05:33;;;;;;;1.35;1.27;;;;;;;5.17;76.15;99764.53;5053286;28;20099;-71
2023/11/18 03:08:03;;;;;;;0.47;0.47;;;;;;;5.08;76.40;99751.69;5054530;28;20048;-71
2023/11/18 03:10:34;;;;;;;0.40;0.40;;;;;;;5.26;76.16;99769.78;5054787;28;20491;-71
2023/11/18 03:13:06;;;;;;;0.70;0.70;;;;;;;5.30;75.92;99771.56;5053153;28;20132;-71
2023/11/18 03:15:35;;;;;;;0.35;0.35;;;;;;;5.35;75.61;99775.03;5053839;28;20041;-71
2023/11/18 03:18:06;;;;;;;0.55;0.55;;;;;;;5.40;75.67;99768.41;5054420;28;20055;-70
2023/11/18 03:20:35;;;;;;;0.40;0.40;;;;;;;5.46;75.15;99780.34;5054662;28;20029;-70
2023/11/18 03:23:07;;;;;;;0.40;0.40;;;;;;;5.50;74.86;99781.25;5054516;28;20174;-71
2023/11/18 03:25:37;;;;;;;0.32;0.32;;;;;;;5.51;74.89;99777.91;5054599;28;20135;-70
2023/11/18 03:28:08;;;;;;;0.40;0.40;;;;;;;5.54;74.83;99785.56;5054187;28;20045;-71
2023/11/18 03:30:38;;;;;;;0.60;0.60;;;;;;;5.57;74.42;99778.03;5052951;28;20122;-71
2023/11/18 03:33:10;;;;;;;0.47;0.47;;;;;;;5.60;74.63;99780.63;5054003;28;20041;-70
2023/11/18 03:35:40;;;;;;;0.38;0.38;;;;;;;5.63;74.67;99783.22;5054297;28;20053;-71
2023/11/18 03:38:09;;;;;;;0.60;0.60;;;;;;;5.64;74.73;99779.88;5052762;28;20047;-70
2023/11/18 03:40:38;;;;;;;0.60;0.60;;;;;;;5.63;74.69;99781.56;5054078;28;20037;-70
2023/11/18 03:43:08;;;;;;;0.50;0.50;;;;;;;5.62;75.18;99786.56;5054237;28;20047;-70
2023/11/18 03:45:39;;;;;;;0.50;0.50;;;;;;;5.63;74.47;99785.75;5053858;28;20053;-70
2023/11/18 03:48:14;;;;;;;0.40;0.40;;;;;;;5.63;75.16;99783.22;5053837;28;20476;-70
2023/11/18 03:50:44;;;;;;;0.40;0.40;;;;;;;5.62;75.44;99784.03;5052879;28;20471;-70
2023/11/18 03:53:13;;;;;;;0.52;0.52;;;;;;;5.60;75.74;99785.69;5053548;28;20061;-71
2023/11/18 03:55:42;;;;;;;0.40;0.40;;;;;;;5.60;75.30;99785.69;5052545;28;20525;-70
2023/11/18 03:58:12;;;;;;;0.35;0.35;;;;;;;5.54;75.14;99780.50;5053942;28;20037;-71
2023/11/18 04:00:41;;;;;;;0.40;0.40;;;;;;;5.62;74.73;99789.97;5053827;28;20140;-70
2023/11/18 04:03:10;;;;;;;0.30;0.30;;;;;;;5.62;74.62;99796.69;5053615;28;20568;-71
2023/11/18 04:05:40;;;;;;;0.70;0.70;;;;;;;5.58;74.62;99788.19;5053745;28;20041;-71
2023/11/18 04:08:09;;;;;;;0.52;0.52;;;;;;;5.61;74.18;99807.66;5054141;28;20270;-70
2023/11/18 04:10:38;;;;;;;0.52;0.52;;;;;;;5.65;73.94;99807.75;5054033;28;20360;-71
2023/11/18 04:13:07;;;;;;;0.50;0.50;;;;;;;5.67;73.95;99802.72;5053754;28;20045;-71
2023/11/18 04:15:37;;;;;;;0.63;0.63;;;;;;;5.67;73.55;99808.63;5052220;28;20048;-71
2023/11/18 04:18:06;;;;;;;1.50;1.15;;;;;;;5.69;73.99;99806.13;5053413;28;20045;-71
2023/11/18 04:20:35;;;;;;;0.82;0.82;;;;;;;5.66;73.77;99801.00;5053588;28;20048;-70
2023/11/18 04:23:04;;;;;;;1.67;0.88;;;;;;;5.67;73.23;99813.69;5052474;28;20128;-70
2023/11/18 04:25:34;;;;;;;0.32;0.32;;;;;;;5.64;73.58;99808.56;5052168;28;20561;-70
2023/11/18 04:28:04;;;;;;;0.50;0.50;;;;;;;5.64;73.19;99812.78;5052388;28;20449;-71
2023/11/18 04:30:33;;;;;;;0.40;0.40;;;;;;;5.63;73.23;99813.59;5053292;28;20052;-70
2023/11/18 04:33:03;;;;;;;0.40;0.40;;;;;;;5.63;73.62;99811.06;5053325;28;20041;-70
2023/11/18 04:35:34;;;;;;;0.60;0.60;;;;;;;5.62;73.35;99810.22;5052356;28;20274;-70
2023/11/18 04:38:03;;;;;;;0.45;0.40;;;;;;;5.64;73.74;99817.84;5053313;28;20053;-70
2023/11/18 04:40:34;;;;;;;1.05;1.05;;;;;;;5.63;72.90;99811.94;5053150;28;20045;-70
2023/11/18 04:43:03;;;;;;;0.30;0.30;;;;;;;5.63;73.04;99811.06;5053172;28;20056;-70
2023/11/18 04:45:32;;;;;;;0.30;0.30;;;;;;;5.64;73.10;99807.72;5053092;28;20048;-70
2023/11/18 04:48:01;;;;;;;0.40;0.40;;;;;;;5.63;73.00;99816.13;5053396;28;20037;-71
2023/11/18 04:50:32;;;;;;;0.40;0.40;;;;;;;5.61;72.61;99822.84;5057134;28;20052;-71
2023/11/18 04:53:02;;;;;;;0.60;0.60;;;;;;;5.54;73.31;99815.94;5056970;28;20057;-71
2023/11/18 04:55:31;;;;;;;;;;;;;;;5.62;73.22;99834.66;5056833;28;20102;-70
2023/11/18 04:58:00;;;;;;;0.30;0.30;;;;;;;5.65;72.71;99837.28;5057238;28;19928;-70
2023/11/18 05:00:28;;;;;;;0.53;0.53;;;;;;;5.64;72.77;99838.94;5056857;28;20052;-71
2023/11/18 05:02:59;;;;;;;0.40;0.40;;;;;;;5.62;72.66;99840.59;5056862;28;20274;-71
2023/11/18 05:05:28;;;;;;;0.30;0.30;;;;;;;5.65;72.66;99839.81;5055919;28;20320;-71
2023/11/18 05:07:58;;;;;;;0.30;0.30;;;;;;;5.65;73.00;99842.34;5056846;28;20045;-71
2023/11/18 05:10:27;;;;;;;0.38;0.38;;;;;;;5.64;72.76;99838.09;5057089;28;20049;-71
2023/11/18 05:12:56;;;;;;;0.50;0.50;;;;;;;5.63;72.17;99837.25;5056649;28;20044;-71
2023/11/18 05:15:26;;;;;;;0.25;0.25;;;;;;;5.62;72.14;99842.25;5056927;28;20043;-71
2023/11/18 05:17:55;;;;;;;0.77;0.77;;;;;;;5.57;72.72;99846.38;5056612;28;20064;-70
2023/11/18 05:20:24;;;;;;;0.30;0.30;;;;;;;5.56;72.48;99839.63;5057070;28;20084;-70
2023/11/18 05:22:53;;;;;;;0.40;0.40;;;;;;;5.54;72.23;99843.78;5056571;28;20546;-71
2023/11/18 05:25:24;;;;;;;0.93;0.93;;;;;;;5.56;72.11;99845.53;5056449;28;20124;-71
2023/11/18 05:27:54;;;;;;;0.30;0.30;;;;;;;5.56;72.35;99845.53;5056369;28;20052;-70
2023/11/18 05:30:23;;;;;;;0.43;0.43;;;;;;;5.54;72.22;99842.13;5056614;28;20399;-70
2023/11/18 05:32:52;;;;;;;0.65;0.65;;;;;;;5.53;72.08;99842.94;5056644;28;20037;-71
2023/11/18 05:35:27;;;;;;;0.40;0.40;;;;;;;5.47;72.14;99849.53;5056595;28;20036;-70
2023/11/18 05:37:56;;;;;;;0.50;0.50;;;;;;;5.40;71.84;99839.28;5056400;28;20364;-70
2023/11/18 05:40:28;;;;;;;0.32;0.32;;;;;;;5.39;71.64;99842.63;5056122;28;20063;-70
2023/11/18 05:42:58;;;;;;;0.30;0.30;;;;;;;5.39;71.99;99839.25;5056120;28;20067;-70
2023/11/18 05:45:36;;;;;;;0.40;0.40;;;;;;;5.35;72.14;99848.44;5056381;28;20052;-71
2023/11/18 05:48:06;;;;;;;0.63;0.63;;;;;;;5.32;71.94;99847.53;5056325;28;20438;-70
2023/11/18 05:50:35;;;;;;;0.40;0.40;;;;;;;5.21;71.70;99829.56;5056000;28;20115;-70
2023/11/18 05:53:04;;;;;;;0.25;0.25;;;;;;;5.27;71.77;99847.41;5055653;28;20049;-70
2023/11/18 05:55:34;;;;;;;0.50;0.50;;;;;;;5.26;71.69;99845.69;5056219;28;20099;-71
2023/11/18 05:58:03;;;;;;;0.30;0.30;;;;;;;5.27;71.79;99859.22;5056213;28;20150;-70
2023/11/18 06:00:32;;;;;;;0.30;0.30;;;;;;;5.25;71.86;99864.25;5054522;28;20055;-70
2023/11/18 06:03:11;;;;;;;0.65;0.65;;;;;;;5.28;71.79;99866.81;5055709;28;20041;-71
2023/11/18 06:05:40;;;;;;;0.38;0.38;;;;;;;5.28;71.75;99869.34;5056315;28;20068;-70
2023/11/18 06:08:09;;;;;;;0.50;0.50;;;;;;;5.18;71.96;99849.72;5055929;28;20037;-71
2023/11/18 06:10:39;;;;;;;0.40;0.40;;;;;;;5.26;72.10;99881.13;5055945;28;20487;-70
2023/11/18 06:13:08;;;;;;;0.43;0.43;;;;;;;5.29;72.34;99883.72;5055588;28;20732;-71
2023/11/18 06:15:38;;;;;;;1.25;0.98;;;;;;;5.29;71.98;99878.66;5055467;28;20095;-71
2023/11/18 06:18:08;;;;;;;0.63;0.63;;;;;;;5.25;72.23;99892.06;5055512;28;20049;-71
2023/11/18 06:20:38;;;;;;;0.60;0.60;;;;;;;5.26;71.98;99891.25;5055434;28;20380;-70
2023/11/18 06:23:06;;;;;;;;;;;;;;;5.25;72.62;99894.59;5055783;28;20055;-71
2023/11/18 06:25:36;;;;;;;0.30;0.30;;;;;;;5.28;72.48;99897.19;5055332;28;19927;-70
2023/11/18 06:28:07;;;;;;;0.30;0.30;;;;;;;5.30;72.45;99898.06;5055185;28;20037;-70
2023/11/18 06:30:36;;;;;;;0.30;0.30;;;;;;;5.33;72.21;99903.22;5055311;28;20049;-70
2023/11/18 06:33:06;;;;;;;0.30;0.30;;;;;;;5.33;72.30;99908.28;5055117;28;20052;-71
2023/11/18 06:35:35;;;;;;;0.85;0.85;;;;;;;5.35;72.23;99910.88;5055675;28;20041;-70
2023/11/18 06:38:03;;;;;;;0.80;0.80;;;;;;;5.40;72.10;99905.06;5055362;28;20495;-71
2023/11/18 06:40:33;;;;;;;0.40;0.40;;;;;;;5.46;71.85;99913.63;5055261;28;20332;-70
2023/11/18 06:43:02;;;;;;;1.20;1.10;;;;;;;5.47;71.77;99916.19;5055737;28;20041;-70
2023/11/18 06:45:32;;;;;;;;;;;;;;;5.48;72.06;99917.03;5055294;28;20060;-70
2023/11/18 06:48:01;;;;;;;0.40;0.40;;;;;;;5.45;72.11;99911.94;5054944;28;19927;-70
2023/11/18 06:50:31;;;;;;;0.50;0.50;;;;;;;5.49;72.21;99923.81;5054885;28;20037;-70
2023/11/18 06:53:00;;;;;;;0.40;0.40;;;;;;;5.46;71.65;99918.69;5054578;28;20087;-70
2023/11/18 06:55:29;;;;;;;0.27;0.27;;;;;;;5.42;71.98;99923.66;5053780;28;20055;-71
2023/11/18 06:57:58;;;;;;;0.43;0.43;;;;;;;5.45;71.77;99924.59;5054616;28;20041;-71
2023/11/18 07:00:28;;;;;;;0.30;0.30;;;;;;;5.40;71.96;99930.38;5054447;28;20037;-71
2023/11/18 07:02:58;;;;;;;0.40;0.40;;;;;;;5.43;71.96;99927.91;5053618;28;20505;-71
2023/11/18 07:05:28;;;;;;;0.28;0.28;;;;;;;5.46;71.78;99928.81;5054930;28;20056;-71
2023/11/18 07:07:57;;;;;;;0.68;0.68;;;;;;;5.47;71.77;99933.06;5054810;28;20051;-71
2023/11/18 07:10:27;;;;;;;0.35;0.35;;;;;;;5.46;71.84;99944.00;5054636;28;20044;-71
2023/11/18 07:12:56;;;;;;;0.50;0.50;;;;;;;5.39;72.19;99933.75;5054389;28;20045;-71
2023/11/18 07:15:25;;;;;;;0.32;0.32;;;;;;;5.45;71.74;99938.06;5053285;28;20499;-71
2023/11/18 07:17:54;;;;;;;0.50;0.50;;;;;;;5.47;72.21;99936.44;5054633;28;20069;-71
2023/11/18 07:20:26;;;;;;;0.35;0.35;;;;;;;5.49;72.11;99928.88;5054174;28;20101;-71
2023/11/18 07:22:55;;;;;;;0.30;0.30;;;;;;;5.51;72.01;99922.19;5053022;28;20578;-71
2023/11/18 07:25:24;;;;;;;0.40;0.40;;;;;;;5.48;72.10;99924.63;5054084;28;20120;-71
2023/11/18 07:27:52;;;;;;;1.13;0.70;;;;;;;5.49;72.30;99929.75;5054175;28;20072;-71
2023/11/18 07:30:22;;;;;;;0.20;0.20;;;;;;;5.51;72.06;99937.38;5054126;28;20051;-71
2023/11/18 07:32:51;;;;;;;;;;;;;;;5.56;72.20;99934.13;5054773;28;20498;-71
2023/11/18 07:35:20;;;;;;;0.50;0.50;;;;;;;5.62;72.01;99936.78;5054090;28;19921;-71
2023/11/18 07:37:50;;;;;;;0.20;0.20;;;;;;;5.72;71.78;99942.91;5054122;28;20041;-71
2023/11/18 07:40:27;;;;;;;0.63;0.60;;;;;;;5.82;72.48;99944.84;5054391;28;20529;-71
2023/11/18 07:43:01;;;;;;;0.30;0.30;;;;;;;5.92;72.43;99942.59;5054013;28;20072;-72
2023/11/18 07:45:37;;;;;;;0.50;0.50;;;;;;;5.99;72.19;99949.50;5053896;28;20053;-71
2023/11/18 07:48:07;;;;;;;0.30;0.30;;;;;;;6.05;71.76;99948.75;5053777;28;20052;-71
2023/11/18 07:50:36;;;;;;;0.50;0.50;;;;;;;6.12;71.64;99958.19;5053715;28;20060;-71
2023/11/18 07:53:07;;;;;;;1.00;1.00;;;;;;;6.17;71.62;99950.72;5053635;28;20045;-71
2023/11/18 07:55:39;;;;;;;0.45;0.45;;;;;;;6.21;70.63;99950.81;5053690;28;20049;-71
2023/11/18 07:58:10;;;;;;;0.77;0.77;;;;;;;6.33;71.23;99940.94;5053917;28;20107;-71
2023/11/18 08:00:40;;;;;;;0.40;0.40;;;;;;;6.55;71.42;99955.72;5053896;28;20049;-71
2023/11/18 08:03:11;;;;;;;0.40;0.40;;;;;;;6.64;70.36;99963.53;5052548;28;20052;-72
2023/11/18 08:05:43;;;;;;;0.40;0.40;;;;;;;6.67;70.12;99947.50;5053081;28;20075;-72
2023/11/18 08:08:16;;;;;;;0.32;0.32;;;;;;;6.83;69.22;99974.00;5053385;28;20087;-71
2023/11/18 08:10:48;;;;;;;0.40;0.40;;;;;;;6.89;70.24;99969.03;5053742;28;20147;-72
2023/11/18 08:13:18;;;;;;;0.30;0.30;;;;;;;6.98;69.58;99969.22;5053394;28;20048;-71
2023/11/18 08:15:47;;;;;;;;;;;;;;;7.03;68.79;99980.31;5053974;28;20048;-71
2023/11/18 08:18:16;;;;;;;0.77;0.77;;;;;;;7.14;68.33;99971.19;5053585;28;19928;-71
2023/11/18 08:20:45;;;;;;;0.40;0.40;;;;;;;7.32;68.56;99968.97;5053536;28;20232;-71
2023/11/18 08:23:15;;;;;;;0.30;0.30;;;;;;;7.57;68.19;99971.09;5051474;28;20290;-71
2023/11/18 08:25:46;;;;;;;0.82;0.82;;;;;;;7.72;67.52;99973.00;5053631;28;20056;-71
2023/11/18 08:28:16;;;;;;;0.52;0.52;;;;;;;7.93;67.28;99973.31;5053229;28;20052;-71
2023/11/18 08:30:45;;;;;;;0.30;0.30;;;;;;;8.06;66.51;99981.13;5053241;28;20430;-71
2023/11/18 08:33:13;;;;;;;0.30;0.30;;;;;;;7.89;66.13;99977.50;5053260;28;20041;-70
2023/11/18 08:35:43;;;;;;;0.27;0.27;;;;;;;7.79;66.84;99980.75;5053420;28;20407;-71
2023/11/18 08:38:12;;;;;;;;;;;;;;;7.62;65.34;99981.31;5053534;28;20041;-71
2023/11/18 08:40:44;;;;;;;0.70;0.70;;;;;;;7.53;65.89;99976.09;5053181;28;19921;-71
2023/11/18 08:43:16;;;;;;;0.35;0.35;;;;;;;7.44;66.73;99976.78;5053320;28;20040;-70
2023/11/18 08:45:47;;;;;;;2.00;1.58;;;;;;;7.36;66.95;99985.97;5053485;28;20076;-71
2023/11/18 08:48:18;;;;;;;0.40;0.40;;;;;;;7.22;66.63;99984.88;5053424;28;20048;-70
2023/11/18 08:50:48;;;;;;;0.40;0.40;;;;;;;7.18;66.97;99985.63;5053106;28;20045;-71
2023/11/18 08:53:17;;;;;;;0.30;0.30;;;;;;;7.16;67.96;100002.53;5052815;28;20045;-71
2023/11/18 08:55:53;;;;;;;0.60;0.60;;;;;;;7.03;67.52;100003.16;5052950;28;20040;-71
2023/11/18 08:58:27;;;;;;;0.73;0.73;;;;;;;6.93;68.33;100012.28;5053191;28;20045;-71
2023/11/18 09:01:05;;;;;;;0.30;0.30;;;;;;;6.90;68.37;100008.81;5053315;28;20053;-71
2023/11/18 09:03:35;;;;;;;0.40;0.40;;;;;;;6.90;68.61;100016.41;5053178;28;20037;-70
2023/11/18 09:06:06;;;;;;;;;;;;;;;6.92;68.46;100010.56;5053337;28;20056;-71
2023/11/18 09:08:38;;;;;;;0.40;0.40;;;;;;;6.98;68.16;100007.28;5052993;28;19924;-71
2023/11/18 09:11:13;;;;;;;0.32;0.32;;;;;;;7.10;67.91;100015.97;5053232;28;20130;-71
2023/11/18 09:13:44;;;;;;;0.47;0.47;;;;;;;7.43;67.90;100021.66;5053243;28;20048;-71
2023/11/18 09:16:14;;;;;;;0.40;0.40;;;;;;;7.71;67.63;100022.97;5053225;28;20141;-71
2023/11/18 09:18:44;;;;;;;0.45;0.45;;;;;;;7.74;67.26;100022.16;5052825;28;20507;-71
2023/11/18 09:21:15;;;;;;;0.50;0.50;;;;;;;7.67;67.18;100025.44;5052815;28;20052;-71
2023/11/18 09:23:45;;;;;;;1.55;0.73;;;;;;;7.48;67.28;100003.97;5052712;28;20075;-71
2023/11/18 09:26:16;;;;;;;0.22;0.22;;;;;;;7.43;67.04;100023.34;5053058;28;20124;-71
2023/11/18 09:28:46;;;;;;;0.30;0.30;;;;;;;7.39;67.52;100017.34;5053082;28;20049;-71
2023/11/18 09:31:16;;;;;;;0.30;0.30;;;;;;;7.48;67.94;100024.28;5052729;28;20048;-71
2023/11/18 09:33:51;;;;;;;0.32;0.32;;;;;;;7.63;67.53;100024.50;5053514;28;20049;-71
2023/11/18 09:36:22;;;;;;;0.30;0.30;;;;;;;7.85;66.43;100026.56;5056188;28;20049;-71
2023/11/18 09:38:53;;;;;;;0.82;0.57;;;;;;;8.03;66.22;100024.31;5056262;28;20088;-71
2023/11/18 09:41:26;;;;;;;2.40;1.15;;;;;;;7.99;66.29;100014.09;5056212;28;20063;-71
2023/11/18 09:44:02;;;;;;;1.05;1.00;;;;;;;7.88;66.40;100006.28;5055965;28;20091;-70
2023/11/18 09:46:33;;;;;;;0.30;0.30;;;;;;;7.78;67.11;100029.84;5056155;28;20052;-71
2023/11/18 09:49:15;;;;;;;0.50;0.50;;;;;;;7.82;66.75;100031.59;5056325;28;20068;-71
2023/11/18 09:51:46;;;;;;;0.30;0.30;;;;;;;7.81;66.65;100029.91;5055766;28;20518;-71
2023/11/18 09:54:29;;;;;;;0.60;0.60;;;;;;;7.87;65.49;100034.25;5056038;28;20041;-71
2023/11/18 09:57:09;;;;;;;0.45;0.45;;;;;;;7.90;66.68;100032.56;5056101;28;20459;-71
2023/11/18 09:59:45;;;;;;;0.30;0.30;;;;;;;8.08;66.14;100040.50;5054908;28;20376;-71
2023/11/18 10:02:15;;;;;;;0.47;0.47;;;;;;;8.32;65.40;100034.06;5056013;28;20492;-71
2023/11/18 10:04:56;;;;;;;0.40;0.40;;;;;;;8.43;65.15;100030.84;5055774;28;20052;-71
2023/11/18 10:07:32;;;;;;;0.28;0.28;;;;;;;8.18;64.83;100031.31;5055966;28;20094;-70
2023/11/18 10:10:03;;;;;;;0.50;0.50;;;;;;;7.95;64.87;100042.81;5055712;28;20077;-71
2023/11/18 10:12:37;;;;;;;0.55;0.55;;;;;;;7.81;64.85;100034.97;5055983;28;20064;-70
2023/11/18 10:15:11;;;;;;;0.30;0.30;;;;;;;7.80;65.33;100038.34;5055444;28;20136;-70
2023/11/18 10:17:55;;;;;;;0.50;0.50;;;;;;;7.97;65.44;100039.47;5056012;28;20132;-71
2023/11/18 10:20:44;;;;;;;0.28;0.28;;;;;;;8.16;65.46;100037.22;5055383;28;20045;-70
2023/11/18 10:23:18;;;;;;;0.32;0.32;;;;;;;8.46;64.42;100037.66;5055504;28;20033;-71
2023/11/18 10:25:49;;;;;;;0.30;0.30;;;;;;;8.69;64.26;100028.63;5055286;28;20499;-70
2023/11/18 10:28:28;;;;;;;0.28;0.28;;;;;;;8.84;63.91;100025.41;5055383;28;20084;-71
2023/11/18 10:30:59;;;;;;;0.30;0.30;;;;;;;8.85;63.03;100016.94;5055266;28;20044;-70
2023/11/18 10:33:30;;;;;;;1.38;1.05;;;;;;;8.70;62.82;100013.41;5055193;28;20072;-71
2023/11/18 10:36:03;;;;;;;1.58;1.08;;;;;;;8.80;61.70;100022.00;5054316;28;20037;-71
2023/11/18 10:38:36;;;;;;;2.65;1.05;;;;;;;8.81;62.32;100017.72;5055140;28;20511;-70
2023/11/18 10:41:06;;;;;;;0.40;0.40;;;;;;;9.06;61.78;100030.78;5055010;28;20132;-71
2023/11/18 10:43:36;;;;;;;0.55;0.50;;;;;;;9.25;62.01;100030.13;5054995;28;20433;-70
2023/11/18 10:46:13;;;;;;;0.50;0.50;;;;;;;9.47;61.89;100040.53;5053340;28;20053;-70
2023/11/18 10:48:44;;;;;;;0.43;0.43;;;;;;;9.64;60.71;100031.34;5055229;28;20577;-71
2023/11/18 10:51:19;;;;;;;0.30;0.30;;;;;;;9.72;60.01;100037.34;5054943;28;20056;-71
2023/11/18 10:53:58;;;;;;;0.50;0.50;;;;;;;9.81;60.29;100035.72;5054644;28;20523;-71
2023/11/18 10:56:29;;;;;;;0.28;0.28;;;;;;;9.84;59.52;100042.53;5054921;28;20131;-71
2023/11/18 10:59:06;;;;;;;0.35;0.35;;;;;;;9.61;58.56;100038.94;5054585;28;20052;-71
2023/11/18 11:01:40;;;;;;;0.30;0.30;;;;;;;9.53;59.00;100053.28;5054783;28;20049;-71
2023/11/18 11:04:11;;;;;;;0.30;0.30;;;;;;;9.61;59.50;100051.69;5054770;28;20118;-71
2023/11/18 11:06:43;;;;;;;0.40;0.40;;;;;;;9.35;58.99;100052.31;5054882;28;20098;-70
2023/11/18 11:09:16;;;;;;;0.50;0.50;;;;;;;9.13;59.29;100057.16;5054696;28;20041;-71
2023/11/18 11:11:51;;;;;;;1.02;0.70;;;;;;;9.08;60.27;100056.25;5054523;28;20487;-71
2023/11/18 11:14:23;;;;;;;0.40;0.40;;;;;;;9.14;60.23;100067.34;5054364;28;20045;-71
2023/11/18 11:16:56;;;;;;;0.40;0.40;;;;;;;9.01;60.01;100045.13;5054499;28;20049;-71
2023/11/18 11:19:37;;;;;;;0.32;0.32;;;;;;;8.68;59.94;100057.47;5054565;28;20053;-71
2023/11/18 11:22:11;;;;;;;0.50;0.50;;;;;;;8.53;61.14;100050.50;5054572;28;20049;-72
2023/11/18 11:25:02;;;;;;;0.30;0.30;;;;;;;8.20;61.20;100039.81;5054636;28;20437;-71
2023/11/18 11:27:39;;;;;;;1.08;1.00;;;;;;;8.24;62.10;100061.91;5054015;28;20136;-71
2023/11/18 11:30:21;;;;;;;0.30;0.30;;;;;;;8.16;62.08;100068.53;5054529;28;20048;-71
2023/11/18 11:32:54;;;;;;;0.30;0.30;;;;;;;8.11;62.58;100065.09;5054044;28;20403;-71
2023/11/18 11:35:28;;;;;;;0.65;0.65;;;;;;;8.03;62.75;100065.00;5054232;28;20106;-71
2023/11/18 11:38:04;;;;;;;0.52;0.52;;;;;;;8.01;62.77;100061.53;5054028;28;20110;-71
2023/11/18 11:40:34;;;;;;;0.85;0.85;;;;;;;7.90;63.01;100063.06;5054443;28;20365;-71
2023/11/18 11:43:06;;;;;;;0.30;0.30;;;;;;;7.88;63.55;100067.28;5054423;28;20052;-71
2023/11/18 11:45:36;;;;;;;0.90;0.90;;;;;;;7.82;63.30;100074.78;5053596;28;20049;-72
2023/11/18 11:48:16;;;;;;;0.30;0.30;;;;;;;7.82;63.10;100082.41;5053991;28;20041;-70
2023/11/18 11:51:13;;;;;;;0.43;0.43;;;;;;;7.79;64.19;100086.59;5054066;28;20135;-69
2023/11/18 11:53:49;;;;;;;0.52;0.52;;;;;;;7.74;64.49;100089.06;5052414;28;20045;-71
2023/11/18 11:56:21;;;;;;;0.30;0.30;;;;;;;7.48;64.75;100095.38;5053939;28;20051;-71
2023/11/18 11:58:53;;;;;;;0.50;0.50;;;;;;;7.36;65.78;100111.25;5052915;28;20139;-72
2023/11/18 12:01:38;;;;;;;0.40;0.40;;;;;;;7.25;67.22;100106.75;5053740;28;20049;-71